sensor_id;sensor_type;location;lat;lon;timestamp;pressure;altitude;pressure_sealevel;temperature;humidity
40117;BME280;25829;50.228;18.936;2023-01-31T00:01:54;97833.25;;;0.88;76.47
40117;BME280;25829;50.228;18.936;2023-01-31T00:04:54;97838.75;;;0.84;76.60
40117;BME280;25829;50.228;18.936;2023-01-31T00:07:55;97841.66;;;0.81;76.56
40117;BME280;25829;50.228;18.936;2023-01-31T00:10:58;97831.28;;;0.81;76.43
40117;BME280;25829;50.228;18.936;2023-01-31T00:13:59;97852.84;;;0.82;76.63
40117;BME280;25829;50.228;18.936;2023-01-31T00:17:01;97845.25;;;0.80;76.53
40117;BME280;25829;50.228;18.936;2023-01-31T00:20:02;97841.19;;;0.78;76.28
40117;BME280;25829;50.228;18.936;2023-01-31T00:23:03;97849.28;;;0.75;76.65
40117;BME280;25829;50.228;18.936;2023-01-31T00:26:28;97864.22;;;0.81;76.65
40117;BME280;25829;50.228;18.936;2023-01-31T00:29:29;97860.50;;;0.83;76.95
40117;BME280;25829;50.228;18.936;2023-01-31T00:32:30;97856.59;;;0.88;76.40
40117;BME280;25829;50.228;18.936;2023-01-31T00:35:30;97865.22;;;0.88;76.83
40117;BME280;25829;50.228;18.936;2023-01-31T00:38:32;97869.09;;;0.92;76.24
40117;BME280;25829;50.228;18.936;2023-01-31T00:41:34;97873.34;;;0.93;76.26
40117;BME280;25829;50.228;18.936;2023-01-31T00:44:35;97879.34;;;0.94;76.08
40117;BME280;25829;50.228;18.936;2023-01-31T00:47:36;97877.06;;;0.99;76.32
40117;BME280;25829;50.228;18.936;2023-01-31T00:50:37;97883.56;;;1.03;75.76
40117;BME280;25829;50.228;18.936;2023-01-31T00:53:38;97877.56;;;1.02;75.77
40117;BME280;25829;50.228;18.936;2023-01-31T00:56:39;97886.81;;;1.05;76.12
40117;BME280;25829;50.228;18.936;2023-01-31T00:59:40;97884.06;;;1.06;75.97
40117;BME280;25829;50.228;18.936;2023-01-31T01:02:41;97886.81;;;1.05;75.96
40117;BME280;25829;50.228;18.936;2023-01-31T01:05:41;97887.00;;;1.03;75.89
40117;BME280;25829;50.228;18.936;2023-01-31T01:08:43;97891.03;;;0.98;76.28
40117;BME280;25829;50.228;18.936;2023-01-31T01:11:44;97885.53;;;1.01;76.34
40117;BME280;25829;50.228;18.936;2023-01-31T01:14:45;97893.00;;;1.04;75.87
40117;BME280;25829;50.228;18.936;2023-01-31T01:17:45;97888.94;;;1.01;76.06
40117;BME280;25829;50.228;18.936;2023-01-31T01:20:46;97892.50;;;1.00;76.13
40117;BME280;25829;50.228;18.936;2023-01-31T01:23:48;97893.16;;;1.02;76.11
40117;BME280;25829;50.228;18.936;2023-01-31T01:26:49;97889.41;;;1.05;76.06
40117;BME280;25829;50.228;18.936;2023-01-31T01:29:50;97900.47;;;1.07;75.91
40117;BME280;25829;50.228;18.936;2023-01-31T01:32:53;97905.31;;;1.10;75.93
40117;BME280;25829;50.228;18.936;2023-01-31T01:35:59;97909.38;;;1.13;75.72
40117;BME280;25829;50.228;18.936;2023-01-31T01:39:02;97926.59;;;1.14;75.52
40117;BME280;25829;50.228;18.936;2023-01-31T01:42:04;97928.38;;;1.13;75.50
40117;BME280;25829;50.228;18.936;2023-01-31T01:45:13;97924.66;;;1.16;75.14
40117;BME280;25829;50.228;18.936;2023-01-31T01:48:16;97936.66;;;1.17;74.77
40117;BME280;25829;50.228;18.936;2023-01-31T01:51:18;97932.13;;;1.19;74.03
40117;BME280;25829;50.228;18.936;2023-01-31T01:54:27;97933.28;;;1.24;74.07
40117;BME280;25829;50.228;18.936;2023-01-31T01:57:35;97939.13;;;1.26;73.41
40117;BME280;25829;50.228;18.936;2023-01-31T02:00:37;97935.53;;;1.27;73.20
40117;BME280;25829;50.228;18.936;2023-01-31T02:03:39;97943.19;;;1.29;73.61
40117;BME280;25829;50.228;18.936;2023-01-31T02:06:43;97948.22;;;1.30;73.63
40117;BME280;25829;50.228;18.936;2023-01-31T02:12:50;97942.38;;;1.28;73.73
40117;BME280;25829;50.228;18.936;2023-01-31T02:15:51;97956.19;;;1.21;73.73
40117;BME280;25829;50.228;18.936;2023-01-31T02:18:52;97971.75;;;1.13;74.20
40117;BME280;25829;50.228;18.936;2023-01-31T02:22:13;97961.66;;;1.01;74.13
40117;BME280;25829;50.228;18.936;2023-01-31T02:41:14;97995.19;;;0.44;76.29
40117;BME280;25829;50.228;18.936;2023-01-31T02:44:33;97999.25;;;0.47;76.33
40117;BME280;25829;50.228;18.936;2023-01-31T02:51:35;98015.00;;;0.45;76.87
40117;BME280;25829;50.228;18.936;2023-01-31T02:54:38;98016.28;;;0.41;76.37
40117;BME280;25829;50.228;18.936;2023-01-31T02:58:01;98005.06;;;0.41;77.05
40117;BME280;25829;50.228;18.936;2023-01-31T03:01:04;98006.84;;;0.40;76.66
40117;BME280;25829;50.228;18.936;2023-01-31T03:04:09;97998.09;;;0.41;76.93
40117;BME280;25829;50.228;18.936;2023-01-31T03:07:16;97998.63;;;0.45;76.92
40117;BME280;25829;50.228;18.936;2023-01-31T03:16:51;98030.47;;;0.55;76.48
40117;BME280;25829;50.228;18.936;2023-01-31T03:23:24;98058.22;;;0.36;77.20
40117;BME280;25829;50.228;18.936;2023-01-31T03:26:29;98072.44;;;0.24;77.22
40117;BME280;25829;50.228;18.936;2023-01-31T03:29:33;98066.06;;;0.19;77.74
40117;BME280;25829;50.228;18.936;2023-01-31T03:32:42;98084.81;;;0.12;77.29
40117;BME280;25829;50.228;18.936;2023-01-31T03:35:55;98091.25;;;0.08;77.54
40117;BME280;25829;50.228;18.936;2023-01-31T03:39:12;98107.28;;;0.04;77.42
40117;BME280;25829;50.228;18.936;2023-01-31T03:45:44;98080.91;;;-0.09;78.19
40117;BME280;25829;50.228;18.936;2023-01-31T03:48:49;98082.41;;;-0.07;78.08
40117;BME280;25829;50.228;18.936;2023-01-31T03:51:57;98082.22;;;-0.05;77.81
40117;BME280;25829;50.228;18.936;2023-01-31T03:55:08;98111.16;;;-0.00;78.06
40117;BME280;25829;50.228;18.936;2023-01-31T03:58:12;98109.06;;;0.03;77.71
40117;BME280;25829;50.228;18.936;2023-01-31T04:01:20;98119.16;;;0.06;77.84
40117;BME280;25829;50.228;18.936;2023-01-31T04:04:33;98113.97;;;0.06;77.70
40117;BME280;25829;50.228;18.936;2023-01-31T04:07:37;98117.94;;;0.01;78.37
40117;BME280;25829;50.228;18.936;2023-01-31T04:10:38;98129.94;;;0.02;77.99
40117;BME280;25829;50.228;18.936;2023-01-31T04:13:40;98119.56;;;0.02;77.89
40117;BME280;25829;50.228;18.936;2023-01-31T04:16:41;98129.53;;;0.06;78.55
40117;BME280;25829;50.228;18.936;2023-01-31T04:19:42;98134.09;;;0.12;78.12
40117;BME280;25829;50.228;18.936;2023-01-31T04:22:43;98137.19;;;0.16;78.27
40117;BME280;25829;50.228;18.936;2023-01-31T04:25:44;98138.00;;;0.17;78.04
40117;BME280;25829;50.228;18.936;2023-01-31T04:28:45;98133.50;;;0.19;77.98
40117;BME280;25829;50.228;18.936;2023-01-31T04:31:46;98149.28;;;0.25;77.60
40117;BME280;25829;50.228;18.936;2023-01-31T04:34:47;98155.16;;;0.27;77.92
40117;BME280;25829;50.228;18.936;2023-01-31T04:37:47;98154.19;;;0.28;77.84
40117;BME280;25829;50.228;18.936;2023-01-31T04:40:48;98151.28;;;0.31;77.28
40117;BME280;25829;50.228;18.936;2023-01-31T04:43:49;98163.97;;;0.34;77.34
40117;BME280;25829;50.228;18.936;2023-01-31T04:46:50;98164.91;;;0.33;77.35
40117;BME280;25829;50.228;18.936;2023-01-31T04:49:50;98167.22;;;0.36;77.27
40117;BME280;25829;50.228;18.936;2023-01-31T04:52:51;98172.09;;;0.40;77.03
40117;BME280;25829;50.228;18.936;2023-01-31T04:55:53;98173.28;;;0.45;77.07
40117;BME280;25829;50.228;18.936;2023-01-31T04:58:54;98176.84;;;0.44;77.41
40117;BME280;25829;50.228;18.936;2023-01-31T05:01:55;98176.84;;;0.44;77.04
40117;BME280;25829;50.228;18.936;2023-01-31T05:04:55;98185.28;;;0.46;76.64
40117;BME280;25829;50.228;18.936;2023-01-31T05:07:56;98190.31;;;0.48;77.21
40117;BME280;25829;50.228;18.936;2023-01-31T05:11:01;98192.50;;;0.52;76.64
40117;BME280;25829;50.228;18.936;2023-01-31T05:14:02;98198.03;;;0.57;76.71
40117;BME280;25829;50.228;18.936;2023-01-31T05:17:03;98192.03;;;0.57;76.66
40117;BME280;25829;50.228;18.936;2023-01-31T05:20:05;98200.78;;;0.56;76.12
40117;BME280;25829;50.228;18.936;2023-01-31T05:23:06;98209.34;;;0.48;76.15
40117;BME280;25829;50.228;18.936;2023-01-31T05:26:07;98230.41;;;0.45;76.80
40117;BME280;25829;50.228;18.936;2023-01-31T05:29:08;98230.81;;;0.41;76.31
40117;BME280;25829;50.228;18.936;2023-01-31T05:32:08;98232.75;;;0.39;76.67
40117;BME280;25829;50.228;18.936;2023-01-31T05:35:10;98237.94;;;0.39;76.51
40117;BME280;25829;50.228;18.936;2023-01-31T05:38:10;98237.94;;;0.39;76.57
40117;BME280;25829;50.228;18.936;2023-01-31T05:41:11;98234.69;;;0.36;76.63
40117;BME280;25829;50.228;18.936;2023-01-31T05:44:12;98232.25;;;0.35;77.11
40117;BME280;25829;50.228;18.936;2023-01-31T05:47:13;98237.13;;;0.38;76.58
40117;BME280;25829;50.228;18.936;2023-01-31T05:50:15;98247.34;;;0.40;76.65
40117;BME280;25829;50.228;18.936;2023-01-31T05:53:17;98242.16;;;0.40;76.60
40117;BME280;25829;50.228;18.936;2023-01-31T05:56:18;98246.72;;;0.38;76.51
40117;BME280;25829;50.228;18.936;2023-01-31T05:59:19;98247.81;;;0.35;76.25
40117;BME280;25829;50.228;18.936;2023-01-31T06:02:19;98260.09;;;0.33;76.68
40117;BME280;25829;50.228;18.936;2023-01-31T06:05:20;98271.16;;;0.35;76.21
40117;BME280;25829;50.228;18.936;2023-01-31T06:08:21;98277.75;;;0.29;76.17
40117;BME280;25829;50.228;18.936;2023-01-31T06:11:22;98271.44;;;0.32;76.01
40117;BME280;25829;50.228;18.936;2023-01-31T06:14:24;98277.00;;;0.37;76.36
40117;BME280;25829;50.228;18.936;2023-01-31T06:17:25;98281.38;;;0.36;76.48
40117;BME280;25829;50.228;18.936;2023-01-31T06:20:26;98292.75;;;0.35;76.23
40117;BME280;25829;50.228;18.936;2023-01-31T06:23:27;98304.09;;;0.34;76.34
40117;BME280;25829;50.228;18.936;2023-01-31T06:26:28;98311.59;;;0.38;76.40
40117;BME280;25829;50.228;18.936;2023-01-31T06:29:29;98305.44;;;0.39;76.22
40117;BME280;25829;50.228;18.936;2023-01-31T06:32:30;98317.94;;;0.43;76.32
40117;BME280;25829;50.228;18.936;2023-01-31T06:35:31;98316.31;;;0.42;76.14
40117;BME280;25829;50.228;18.936;2023-01-31T06:38:36;98323.31;;;0.42;76.14
40117;BME280;25829;50.228;18.936;2023-01-31T06:41:36;98333.53;;;0.43;76.26
40117;BME280;25829;50.228;18.936;2023-01-31T06:44:37;98330.41;;;0.40;75.58
40117;BME280;25829;50.228;18.936;2023-01-31T06:47:38;98337.38;;;0.39;76.06
40117;BME280;25829;50.228;18.936;2023-01-31T06:50:39;98357.69;;;0.44;75.87
40117;BME280;25829;50.228;18.936;2023-01-31T06:53:40;98365.34;;;0.45;75.83
40117;BME280;25829;50.228;18.936;2023-01-31T06:56:41;98360.28;;;0.44;75.74
40117;BME280;25829;50.228;18.936;2023-01-31T06:59:42;98367.94;;;0.45;75.62
40117;BME280;25829;50.228;18.936;2023-01-31T07:02:44;98379.13;;;0.46;75.60
40117;BME280;25829;50.228;18.936;2023-01-31T07:05:46;98382.69;;;0.45;75.26
40117;BME280;25829;50.228;18.936;2023-01-31T07:08:48;98378.16;;;0.47;75.61
40117;BME280;25829;50.228;18.936;2023-01-31T07:11:48;98382.78;;;0.53;75.88
40117;BME280;25829;50.228;18.936;2023-01-31T07:14:49;98389.75;;;0.52;75.48
40117;BME280;25829;50.228;18.936;2023-01-31T07:17:50;98393.00;;;0.54;75.45
40117;BME280;25829;50.228;18.936;2023-01-31T07:20:56;98387.16;;;0.52;75.26
40117;BME280;25829;50.228;18.936;2023-01-31T07:23:57;98386.06;;;0.55;75.40
40117;BME280;25829;50.228;18.936;2023-01-31T07:26:57;98388.88;;;0.62;75.11
40117;BME280;25829;50.228;18.936;2023-01-31T07:29:58;98396.25;;;0.66;75.34
40117;BME280;25829;50.228;18.936;2023-01-31T07:32:59;98401.44;;;0.66;75.04
40117;BME280;25829;50.228;18.936;2023-01-31T07:36:03;98394.47;;;0.67;74.92
40117;BME280;25829;50.228;18.936;2023-01-31T07:39:04;98397.19;;;0.65;74.51
40117;BME280;25829;50.228;18.936;2023-01-31T07:42:05;98403.75;;;0.69;74.80
40117;BME280;25829;50.228;18.936;2023-01-31T07:45:09;98405.19;;;0.72;74.27
40117;BME280;25829;50.228;18.936;2023-01-31T07:48:10;98421.47;;;0.74;74.39
40117;BME280;25829;50.228;18.936;2023-01-31T07:51:11;98417.09;;;0.74;74.25
40117;BME280;25829;50.228;18.936;2023-01-31T07:54:12;98434.28;;;0.75;74.40
40117;BME280;25829;50.228;18.936;2023-01-31T07:57:13;98426.38;;;0.77;74.01
40117;BME280;25829;50.228;18.936;2023-01-31T08:00:17;98423.91;;;0.75;74.30
40117;BME280;25829;50.228;18.936;2023-01-31T08:03:36;98427.34;;;0.76;73.85
40117;BME280;25829;50.228;18.936;2023-01-31T08:06:38;98428.28;;;0.75;73.63
40117;BME280;25829;50.228;18.936;2023-01-31T08:09:39;98429.78;;;0.77;73.74
40117;BME280;25829;50.228;18.936;2023-01-31T08:12:42;98434.00;;;0.78;73.39
40117;BME280;25829;50.228;18.936;2023-01-31T08:15:43;98442.31;;;0.82;73.67
40117;BME280;25829;50.228;18.936;2023-01-31T08:18:44;98451.91;;;0.81;73.70
40117;BME280;25829;50.228;18.936;2023-01-31T08:21:45;98443.44;;;0.79;73.80
40117;BME280;25829;50.228;18.936;2023-01-31T08:24:45;98444.25;;;0.80;73.34
40117;BME280;25829;50.228;18.936;2023-01-31T08:27:46;98459.84;;;0.80;73.40
40117;BME280;25829;50.228;18.936;2023-01-31T08:30:47;98465.69;;;0.82;73.07
40117;BME280;25829;50.228;18.936;2023-01-31T08:33:48;98465.69;;;0.82;72.96
40117;BME280;25829;50.228;18.936;2023-01-31T08:36:52;98471.34;;;0.77;73.13
40117;BME280;25829;50.228;18.936;2023-01-31T08:39:53;98473.47;;;0.82;73.02
40117;BME280;25829;50.228;18.936;2023-01-31T08:42:55;98474.00;;;0.86;73.31
40117;BME280;25829;50.228;18.936;2023-01-31T08:45:56;98484.63;;;0.92;72.74
40117;BME280;25829;50.228;18.936;2023-01-31T08:48:57;98489.41;;;0.97;72.59
40117;BME280;25829;50.228;18.936;2023-01-31T08:51:58;98478.75;;;1.00;72.16
40117;BME280;25829;50.228;18.936;2023-01-31T08:54:59;98484.31;;;1.05;72.50
40117;BME280;25829;50.228;18.936;2023-01-31T08:58:00;98487.25;;;1.10;72.06
40117;BME280;25829;50.228;18.936;2023-01-31T09:01:08;98499.59;;;1.08;71.71
40117;BME280;25829;50.228;18.936;2023-01-31T09:04:09;98495.50;;;1.05;72.03
40117;BME280;25829;50.228;18.936;2023-01-31T09:07:10;98504.13;;;1.06;71.32
40117;BME280;25829;50.228;18.936;2023-01-31T09:10:10;98516.56;;;1.02;71.58
40117;BME280;25829;50.228;18.936;2023-01-31T09:13:11;98505.91;;;1.05;71.30
40117;BME280;25829;50.228;18.936;2023-01-31T09:16:13;98509.69;;;1.11;71.23
40117;BME280;25829;50.228;18.936;2023-01-31T09:19:14;98513.66;;;1.15;70.67
40117;BME280;25829;50.228;18.936;2023-01-31T09:22:15;98519.53;;;1.17;70.73
40117;BME280;25829;50.228;18.936;2023-01-31T09:25:15;98525.09;;;1.22;70.45
40117;BME280;25829;50.228;18.936;2023-01-31T09:28:16;98525.09;;;1.22;70.48
40117;BME280;25829;50.228;18.936;2023-01-31T09:31:18;98521.22;;;1.26;69.70
40117;BME280;25829;50.228;18.936;2023-01-31T09:34:22;98520.41;;;1.26;69.41
40117;BME280;25829;50.228;18.936;2023-01-31T09:37:23;98528.38;;;1.24;69.56
40117;BME280;25829;50.228;18.936;2023-01-31T09:40:25;98521.81;;;1.20;68.93
40117;BME280;25829;50.228;18.936;2023-01-31T09:43:37;98529.47;;;1.22;68.90
40117;BME280;25829;50.228;18.936;2023-01-31T09:46:46;98520.06;;;1.21;68.29
40117;BME280;25829;50.228;18.936;2023-01-31T09:49:51;98525.78;;;1.24;68.54
40117;BME280;25829;50.228;18.936;2023-01-31T09:52:56;98535.31;;;1.24;68.57
40117;BME280;25829;50.228;18.936;2023-01-31T10:02:44;98540.16;;;1.19;68.75
40117;BME280;25829;50.228;18.936;2023-01-31T10:13:29;98544.53;;;1.18;69.99
40117;BME280;25829;50.228;18.936;2023-01-31T10:16:43;98525.38;;;1.19;69.57
40117;BME280;25829;50.228;18.936;2023-01-31T10:19:58;98527.00;;;1.20;69.96
40117;BME280;25829;50.228;18.936;2023-01-31T10:23:02;98525.53;;;1.18;69.92
40117;BME280;25829;50.228;18.936;2023-01-31T10:26:13;98521.69;;;1.22;70.26
40117;BME280;25829;50.228;18.936;2023-01-31T10:29:22;98520.13;;;1.29;70.29
40117;BME280;25829;50.228;18.936;2023-01-31T10:32:36;98518.34;;;1.29;69.75
40117;BME280;25829;50.228;18.936;2023-01-31T10:35:43;98523.53;;;1.29;68.53
40117;BME280;25829;50.228;18.936;2023-01-31T10:45:47;98517.00;;;1.43;68.28
40117;BME280;25829;50.228;18.936;2023-01-31T10:48:49;98512.34;;;1.47;68.34
40117;BME280;25829;50.228;18.936;2023-01-31T10:58:22;98504.91;;;1.70;67.01
40117;BME280;25829;50.228;18.936;2023-01-31T11:01:23;98505.44;;;1.73;67.21
40117;BME280;25829;50.228;18.936;2023-01-31T11:04:29;98506.81;;;1.86;67.24
40117;BME280;25829;50.228;18.936;2023-01-31T11:07:30;98508.66;;;1.93;66.71
40117;BME280;25829;50.228;18.936;2023-01-31T11:10:32;98501.22;;;1.98;66.47
40117;BME280;25829;50.228;18.936;2023-01-31T11:13:32;98511.34;;;2.01;66.71
40117;BME280;25829;50.228;18.936;2023-01-31T11:16:35;98513.47;;;2.06;66.42
40117;BME280;25829;50.228;18.936;2023-01-31T11:19:44;98506.78;;;2.03;66.16
40117;BME280;25829;50.228;18.936;2023-01-31T11:22:46;98503.00;;;1.98;65.75
40117;BME280;25829;50.228;18.936;2023-01-31T11:25:48;98496.19;;;1.97;65.68
40117;BME280;25829;50.228;18.936;2023-01-31T11:28:51;98494.91;;;2.01;66.28
40117;BME280;25829;50.228;18.936;2023-01-31T11:31:52;98485.53;;;2.08;66.06
40117;BME280;25829;50.228;18.936;2023-01-31T11:35:02;98488.13;;;2.08;66.24
40117;BME280;25829;50.228;18.936;2023-01-31T11:41:33;98479.84;;;2.13;66.06
40117;BME280;25829;50.228;18.936;2023-01-31T11:45:02;98464.53;;;2.10;65.99
40117;BME280;25829;50.228;18.936;2023-01-31T11:48:22;98469.91;;;2.08;65.63
40117;BME280;25829;50.228;18.936;2023-01-31T11:51:28;98463.25;;;2.14;66.55
40117;BME280;25829;50.228;18.936;2023-01-31T11:54:32;98460.25;;;2.26;66.02
40117;BME280;25829;50.228;18.936;2023-01-31T11:57:35;98462.72;;;2.28;65.71
40117;BME280;25829;50.228;18.936;2023-01-31T12:00:50;98457.53;;;2.36;66.02
40117;BME280;25829;50.228;18.936;2023-01-31T12:03:58;98462.59;;;2.38;65.92
40117;BME280;25829;50.228;18.936;2023-01-31T12:10:24;98453.38;;;2.51;66.08
40117;BME280;25829;50.228;18.936;2023-01-31T12:13:25;98456.16;;;2.50;65.51
40117;BME280;25829;50.228;18.936;2023-01-31T12:16:29;98442.31;;;2.49;65.73
40117;BME280;25829;50.228;18.936;2023-01-31T12:36:01;98421.91;;;2.79;64.97
40117;BME280;25829;50.228;18.936;2023-01-31T12:39:14;98423.53;;;2.80;63.98
40117;BME280;25829;50.228;18.936;2023-01-31T12:52:09;98426.22;;;2.54;63.89
40117;BME280;25829;50.228;18.936;2023-01-31T12:55:27;98421.28;;;2.43;64.21
40117;BME280;25829;50.228;18.936;2023-01-31T13:05:23;98427.63;;;2.40;65.31
40117;BME280;25829;50.228;18.936;2023-01-31T13:08:30;98424.03;;;2.41;65.78
40117;BME280;25829;50.228;18.936;2023-01-31T13:11:38;98422.59;;;2.47;66.13
40117;BME280;25829;50.228;18.936;2023-01-31T13:14:44;98419.22;;;2.55;66.37
40117;BME280;25829;50.228;18.936;2023-01-31T13:17:54;98414.88;;;2.63;66.56
40117;BME280;25829;50.228;18.936;2023-01-31T13:21:00;98411.59;;;2.69;66.15
40117;BME280;25829;50.228;18.936;2023-01-31T13:24:11;98402.53;;;2.73;66.61
40117;BME280;25829;50.228;18.936;2023-01-31T13:27:25;98406.44;;;2.78;66.30
40117;BME280;25829;50.228;18.936;2023-01-31T13:33:40;98398.25;;;2.72;66.00
40117;BME280;25829;50.228;18.936;2023-01-31T13:39:54;98396.63;;;2.63;66.45
40117;BME280;25829;50.228;18.936;2023-01-31T13:43:07;98404.91;;;2.59;66.54
40117;BME280;25829;50.228;18.936;2023-01-31T13:46:13;98408.47;;;2.58;66.96
40117;BME280;25829;50.228;18.936;2023-01-31T13:49:32;98409.78;;;2.54;67.01
40117;BME280;25829;50.228;18.936;2023-01-31T13:52:44;98415.59;;;2.47;67.34
40117;BME280;25829;50.228;18.936;2023-01-31T13:55:48;98417.72;;;2.44;68.06
40117;BME280;25829;50.228;18.936;2023-01-31T13:58:50;98418.31;;;2.38;67.98
40117;BME280;25829;50.228;18.936;2023-01-31T14:01:53;98427.59;;;2.32;68.20
40117;BME280;25829;50.228;18.936;2023-01-31T14:05:49;98418.28;;;2.30;68.52
40117;BME280;25829;50.228;18.936;2023-01-31T14:11:50;98410.25;;;2.15;68.99
40117;BME280;25829;50.228;18.936;2023-01-31T14:14:55;98411.56;;;2.11;69.00
40117;BME280;25829;50.228;18.936;2023-01-31T14:17:58;98398.78;;;1.99;69.17
40117;BME280;25829;50.228;18.936;2023-01-31T14:31:11;98377.56;;;1.60;71.22
40117;BME280;25829;50.228;18.936;2023-01-31T14:34:25;98368.78;;;1.61;71.25
40117;BME280;25829;50.228;18.936;2023-01-31T14:37:41;98367.22;;;1.68;71.43
40117;BME280;25829;50.228;18.936;2023-01-31T14:41:10;98366.41;;;1.68;71.02
40117;BME280;25829;50.228;18.936;2023-01-31T14:44:40;98366.91;;;1.71;71.53
40117;BME280;25829;50.228;18.936;2023-01-31T14:57:30;98354.38;;;1.67;71.70
40117;BME280;25829;50.228;18.936;2023-01-31T15:00:35;98352.59;;;1.67;71.73
40117;BME280;25829;50.228;18.936;2023-01-31T15:06:51;98365.91;;;1.64;71.84
40117;BME280;25829;50.228;18.936;2023-01-31T15:09:53;98351.28;;;1.63;72.34
40117;BME280;25829;50.228;18.936;2023-01-31T15:12:58;98355.78;;;1.61;72.52
40117;BME280;25829;50.228;18.936;2023-01-31T15:16:02;98356.47;;;1.63;72.44
40117;BME280;25829;50.228;18.936;2023-01-31T15:19:17;98365.75;;;1.66;72.57
40117;BME280;25829;50.228;18.936;2023-01-31T15:22:21;98357.13;;;1.65;72.34
40117;BME280;25829;50.228;18.936;2023-01-31T15:25:33;98349.00;;;1.68;72.40
40117;BME280;25829;50.228;18.936;2023-01-31T15:28:39;98344.78;;;1.67;72.31
40117;BME280;25829;50.228;18.936;2023-01-31T15:31:42;98349.19;;;1.67;72.51
40117;BME280;25829;50.228;18.936;2023-01-31T15:34:53;98332.59;;;1.68;72.47
40117;BME280;25829;50.228;18.936;2023-01-31T15:38:31;98346.56;;;1.67;72.92
40117;BME280;25829;50.228;18.936;2023-01-31T15:41:31;98332.09;;;1.64;72.80
40117;BME280;25829;50.228;18.936;2023-01-31T15:44:34;98325.91;;;1.65;72.75
40117;BME280;25829;50.228;18.936;2023-01-31T15:47:35;98327.06;;;1.63;72.58
40117;BME280;25829;50.228;18.936;2023-01-31T15:50:36;98323.94;;;1.59;73.12
40117;BME280;25829;50.228;18.936;2023-01-31T15:53:37;98326.03;;;1.55;72.75
40117;BME280;25829;50.228;18.936;2023-01-31T15:56:39;98316.53;;;1.46;73.03
40117;BME280;25829;50.228;18.936;2023-01-31T15:59:43;98319.44;;;1.43;73.34
40117;BME280;25829;50.228;18.936;2023-01-31T16:02:46;98316.69;;;1.45;73.17
40117;BME280;25829;50.228;18.936;2023-01-31T16:05:49;98322.84;;;1.44;72.90
40117;BME280;25829;50.228;18.936;2023-01-31T16:08:53;98319.25;;;1.37;73.06
40117;BME280;25829;50.228;18.936;2023-01-31T16:11:56;98328.00;;;1.36;73.88
40117;BME280;25829;50.228;18.936;2023-01-31T16:15:04;98324.13;;;1.40;73.10
40117;BME280;25829;50.228;18.936;2023-01-31T16:18:09;98316.34;;;1.40;73.51
40117;BME280;25829;50.228;18.936;2023-01-31T16:21:38;98317.97;;;1.41;73.31
40117;BME280;25829;50.228;18.936;2023-01-31T16:24:51;98316.63;;;1.37;73.26
40117;BME280;25829;50.228;18.936;2023-01-31T16:27:52;98323.78;;;1.35;73.01
40117;BME280;25829;50.228;18.936;2023-01-31T16:31:03;98321.19;;;1.35;73.40
40117;BME280;25829;50.228;18.936;2023-01-31T16:34:20;98336.47;;;1.38;73.30
40117;BME280;25829;50.228;18.936;2023-01-31T16:40:36;98329.50;;;1.38;73.28
40117;BME280;25829;50.228;18.936;2023-01-31T16:43:49;98328.00;;;1.36;72.89
40117;BME280;25829;50.228;18.936;2023-01-31T16:46:50;98321.50;;;1.31;73.05
40117;BME280;25829;50.228;18.936;2023-01-31T16:53:30;98324.53;;;1.27;73.37
40117;BME280;25829;50.228;18.936;2023-01-31T16:56:31;98325.66;;;1.24;73.75
40117;BME280;25829;50.228;18.936;2023-01-31T17:02:38;98315.91;;;1.26;73.47
40117;BME280;25829;50.228;18.936;2023-01-31T17:05:42;98316.09;;;1.25;73.93
40117;BME280;25829;50.228;18.936;2023-01-31T17:08:44;98313.78;;;1.22;73.95
40117;BME280;25829;50.228;18.936;2023-01-31T17:11:45;98304.81;;;1.16;74.24
40117;BME280;25829;50.228;18.936;2023-01-31T17:14:46;98302.50;;;1.13;73.91
40117;BME280;25829;50.228;18.936;2023-01-31T17:17:47;98304.75;;;1.08;74.16
40117;BME280;25829;50.228;18.936;2023-01-31T17:20:48;98299.56;;;1.08;74.49
40117;BME280;25829;50.228;18.936;2023-01-31T17:23:50;98298.22;;;1.04;74.61
40117;BME280;25829;50.228;18.936;2023-01-31T17:26:51;98306.31;;;1.01;74.17
40117;BME280;25829;50.228;18.936;2023-01-31T17:29:51;98294.31;;;1.00;74.89
40117;BME280;25829;50.228;18.936;2023-01-31T17:32:52;98305.50;;;1.00;74.56
40117;BME280;25829;50.228;18.936;2023-01-31T17:35:53;98293.16;;;1.02;74.73
40117;BME280;25829;50.228;18.936;2023-01-31T17:38:54;98287.84;;;1.04;74.67
40117;BME280;25829;50.228;18.936;2023-01-31T17:41:54;98279.22;;;1.03;74.91
40117;BME280;25829;50.228;18.936;2023-01-31T17:44:56;98278.41;;;1.03;74.53
40117;BME280;25829;50.228;18.936;2023-01-31T17:47:57;98272.03;;;0.97;74.77
40117;BME280;25829;50.228;18.936;2023-01-31T17:50:57;98256.59;;;0.96;75.09
40117;BME280;25829;50.228;18.936;2023-01-31T17:53:58;98247.84;;;0.97;75.14
40117;BME280;25829;50.228;18.936;2023-01-31T17:56:59;98255.47;;;0.98;75.51
40117;BME280;25829;50.228;18.936;2023-01-31T18:00:00;98259.66;;;0.91;75.16
40117;BME280;25829;50.228;18.936;2023-01-31T18:03:00;98249.84;;;0.85;75.38
40117;BME280;25829;50.228;18.936;2023-01-31T18:06:06;98255.56;;;0.89;75.80
40117;BME280;25829;50.228;18.936;2023-01-31T18:09:07;98244.38;;;0.88;75.98
40117;BME280;25829;50.228;18.936;2023-01-31T18:12:13;98231.69;;;0.85;76.09
40117;BME280;25829;50.228;18.936;2023-01-31T18:15:14;98239.47;;;0.85;76.37
40117;BME280;25829;50.228;18.936;2023-01-31T18:18:14;98222.25;;;0.84;76.36
40117;BME280;25829;50.228;18.936;2023-01-31T18:21:17;98228.94;;;0.87;75.94
40117;BME280;25829;50.228;18.936;2023-01-31T18:24:18;98229.59;;;0.89;76.36
40117;BME280;25829;50.228;18.936;2023-01-31T18:27:19;98218.91;;;0.92;75.87
40117;BME280;25829;50.228;18.936;2023-01-31T18:30:20;98217.63;;;0.96;76.12
40117;BME280;25829;50.228;18.936;2023-01-31T18:33:21;98216.16;;;0.93;75.88
40117;BME280;25829;50.228;18.936;2023-01-31T18:36:26;98210.81;;;0.95;76.31
40117;BME280;25829;50.228;18.936;2023-01-31T18:39:28;98205.91;;;0.92;75.80
40117;BME280;25829;50.228;18.936;2023-01-31T18:42:28;98205.91;;;0.92;75.81